Time;durP1;ratioP1;P1;durP2;ratioP2;P2;SDS_P1;SDS_P2;PMS_P1;PMS_P2;Temp;Humidity;BMP_temperature;BMP_pressure;BME280_temperature;BME280_humidity;BME280_pressure;Samples;Min_cycle;Max_cycle;Signal;HPM_P1;HPM_P2
2023/11/16 00:02:21;;;;;;;10.47;2.77;;;7.00;99.90;;;;;;4836612;29;20438;-71
2023/11/16 00:04:48;;;;;;;9.93;2.60;;;7.00;99.90;;;;;;4843964;29;20443;-72
2023/11/16 00:07:14;;;;;;;8.00;3.40;;;6.90;99.90;;;;;;4836240;29;20432;-72
2023/11/16 00:09:40;;;;;;;9.70;3.00;;;6.90;99.90;;;;;;4839281;29;20725;-72
2023/11/16 00:12:06;;;;;;;4.83;2.07;;;6.80;99.90;;;;;;4844367;29;20433;-72
2023/11/16 00:14:32;;;;;;;6.53;2.30;;;6.80;99.90;;;;;;4841367;29;20228;-72
2023/11/16 00:17:00;;;;;;;7.97;3.33;;;6.80;99.90;;;;;;4837791;29;20301;-74
2023/11/16 00:19:27;;;;;;;3.87;2.33;;;6.70;99.90;;;;;;4838690;29;20438;-72
2023/11/16 00:21:53;;;;;;;10.17;3.20;;;6.70;99.90;;;;;;4821987;29;20817;-72
2023/11/16 00:24:19;;;;;;;8.00;3.10;;;6.70;99.90;;;;;;4843339;29;20483;-72
2023/11/16 00:26:45;;;;;;;10.70;2.80;;;6.70;99.90;;;;;;4839912;29;20230;-73
2023/11/16 00:29:11;;;;;;;8.80;3.13;;;6.70;99.90;;;;;;4831774;29;20431;-72
2023/11/16 00:31:37;;;;;;;7.30;2.97;;;6.60;99.90;;;;;;4841358;29;20204;-72
2023/11/16 00:34:04;;;;;;;7.53;2.43;;;6.60;99.90;;;;;;4838575;29;20493;-72
2023/11/16 00:36:31;;;;;;;9.70;2.60;;;6.60;99.90;;;;;;4814020;29;20447;-72
2023/11/16 00:38:58;;;;;;;4.70;2.80;;;6.50;99.90;;;;;;4832136;29;20441;-74
2023/11/16 00:41:27;;;;;;;8.63;3.23;;;6.50;99.90;;;;;;4814383;29;20204;-73
2023/11/16 00:43:53;;;;;;;8.00;3.10;;;6.60;99.90;;;;;;4831954;29;20731;-73
2023/11/16 00:46:21;;;;;;;5.90;2.97;;;6.60;99.90;;;;;;4829789;29;20458;-72
2023/11/16 00:48:47;;;;;;;8.00;3.17;;;6.60;99.90;;;;;;4838358;29;20435;-73
2023/11/16 00:51:14;;;;;;;3.80;2.23;;;6.70;99.90;;;;;;4828661;29;20433;-72
2023/11/16 00:53:42;;;;;;;10.87;2.90;;;6.80;99.90;;;;;;4838400;29;20811;-73
2023/11/16 00:56:09;;;;;;;9.13;2.10;;;6.90;99.90;;;;;;4840024;29;20535;-74
2023/11/16 00:58:37;;;;;;;4.17;2.37;;;6.90;99.90;;;;;;4838610;29;20434;-72
2023/11/16 01:01:07;;;;;;;17.20;2.80;;;6.90;99.90;;;;;;4831196;29;20481;-72
2023/11/16 01:03:33;;;;;;;8.00;2.80;;;7.00;99.90;;;;;;4836419;29;20542;-73
2023/11/16 01:05:59;;;;;;;8.70;2.97;;;7.00;99.90;;;;;;4814437;29;20719;-72
2023/11/16 01:08:26;;;;;;;6.90;2.50;;;7.00;99.90;;;;;;4836951;29;20434;-71
2023/11/16 01:10:52;;;;;;;5.50;2.37;;;7.00;99.90;;;;;;4828706;29;20190;-71
2023/11/16 01:13:24;;;;;;;10.77;3.10;;;7.00;99.90;;;;;;4817806;29;20553;-72
2023/11/16 01:15:51;;;;;;;5.50;1.97;;;7.00;99.90;;;;;;4829343;29;20450;-71
2023/11/16 01:18:17;;;;;;;6.00;2.47;;;6.90;99.90;;;;;;4824203;29;20430;-73
2023/11/16 01:20:43;;;;;;;4.30;2.63;;;6.90;99.90;;;;;;4828841;29;20530;-74
2023/11/16 01:23:11;;;;;;;11.87;3.00;;;7.00;99.90;;;;;;4832800;29;20435;-73
2023/11/16 01:25:41;;;;;;;11.37;2.57;;;7.00;99.90;;;;;;4837260;29;20451;-74
2023/11/16 01:28:15;;;;;;;7.50;3.37;;;7.10;99.90;;;;;;4825753;29;20515;-72
2023/11/16 01:30:41;;;;;;;4.10;1.87;;;7.20;99.90;;;;;;4826692;29;20587;-73
2023/11/16 01:33:08;;;;;;;3.80;1.80;;;7.30;99.90;;;;;;4827130;29;20771;-73
2023/11/16 01:35:36;;;;;;;5.83;2.10;;;7.40;99.90;;;;;;4826665;29;20221;-71
2023/11/16 01:38:05;;;;;;;3.70;2.50;;;7.50;99.90;;;;;;4826619;29;20437;-72
2023/11/16 01:40:32;;;;;;;7.60;2.43;;;7.50;99.90;;;;;;4833176;29;20430;-73
2023/11/16 01:42:57;;;;;;;8.70;2.73;;;7.60;99.90;;;;;;4834832;29;20446;-72
2023/11/16 01:45:30;;;;;;;7.73;2.73;;;7.60;99.90;;;;;;4824781;29;20443;-73
2023/11/16 01:48:02;;;;;;;8.87;2.20;;;7.70;99.90;;;;;;4826688;29;20438;-72
2023/11/16 01:50:30;;;;;;;4.20;1.67;;;7.70;99.90;;;;;;4826759;29;20487;-73
2023/11/16 01:53:06;;;;;;;3.97;2.10;;;7.70;99.90;;;;;;4835235;29;20421;-73
2023/11/16 01:55:37;;;;;;;6.00;2.00;;;7.80;99.90;;;;;;4843354;29;20488;-72
2023/11/16 01:58:04;;;;;;;4.53;2.10;;;7.80;99.90;;;;;;4835355;29;20453;-72
2023/11/16 02:00:33;;;;;;;5.10;2.40;;;7.80;99.90;;;;;;4842244;29;20712;-71
2023/11/16 02:03:01;;;;;;;5.67;2.27;;;7.80;99.90;;;;;;4828212;29;20495;-72
2023/11/16 02:05:27;;;;;;;7.97;2.10;;;7.90;99.90;;;;;;4845835;29;20442;-72
2023/11/16 02:07:52;;;;;;;5.23;2.47;;;7.90;99.90;;;;;;4844789;29;20925;-71
2023/11/16 02:10:18;;;;;;;5.10;2.30;;;7.90;99.90;;;;;;4840568;29;20688;-71
2023/11/16 02:12:53;;;;;;;3.93;1.80;;;7.90;99.90;;;;;;4820109;29;20663;-72
2023/11/16 02:15:20;;;;;;;4.67;2.20;;;7.90;99.90;;;;;;4809819;29;20228;-72
2023/11/16 02:17:46;;;;;;;8.57;2.23;;;7.90;99.90;;;;;;4826326;29;20427;-72
2023/11/16 02:20:11;;;;;;;6.90;2.10;;;7.90;99.90;;;;;;4826290;29;20194;-71
2023/11/16 02:22:38;;;;;;;4.83;2.20;;;7.90;99.90;;;;;;4825778;29;20197;-72
2023/11/16 02:25:08;;;;;;;4.93;2.00;;;8.00;99.90;;;;;;4812085;29;20221;-71
2023/11/16 02:27:34;;;;;;;5.47;1.90;;;8.00;99.90;;;;;;4830032;29;20441;-72
2023/11/16 02:30:00;;;;;;;3.67;1.73;;;8.00;99.90;;;;;;4829843;29;20509;-71
2023/11/16 02:32:26;;;;;;;6.43;2.17;;;8.00;99.90;;;;;;4829844;29;20258;-75
2023/11/16 02:34:52;;;;;;;3.33;1.70;;;8.00;99.90;;;;;;4833808;29;20569;-71
2023/11/16 02:37:18;;;;;;;3.67;1.77;;;8.00;99.90;;;;;;4848189;29;20430;-71
2023/11/16 02:39:44;;;;;;;6.30;2.20;;;8.00;99.90;;;;;;4847712;29;20786;-71
2023/11/16 02:42:13;;;;;;;5.63;2.20;;;8.00;99.90;;;;;;4843637;29;20441;-71
2023/11/16 02:44:42;;;;;;;10.03;2.23;;;8.10;99.90;;;;;;4827636;29;20442;-71
2023/11/16 02:47:08;;;;;;;3.47;1.57;;;8.00;99.90;;;;;;4833710;29;20445;-71
2023/11/16 02:49:34;;;;;;;5.03;1.80;;;8.10;99.90;;;;;;4847577;29;20768;-70
2023/11/16 02:52:00;;;;;;;5.20;2.40;;;8.10;99.90;;;;;;4847725;29;20434;-71
2023/11/16 02:54:26;;;;;;;5.47;1.73;;;8.10;99.90;;;;;;4847788;29;20505;-73
2023/11/16 02:56:55;;;;;;;6.10;2.20;;;8.10;99.90;;;;;;4846510;29;20244;-74
2023/11/16 02:59:21;;;;;;;4.00;1.70;;;8.10;99.90;;;;;;4842218;29;20513;-73
2023/11/16 03:01:46;;;;;;;5.30;1.80;;;8.10;99.90;;;;;;4848035;29;20930;-71
2023/11/16 03:04:12;;;;;;;3.97;2.17;;;8.10;99.90;;;;;;4847675;29;20501;-71
2023/11/16 03:06:38;;;;;;;4.63;2.30;;;8.10;99.90;;;;;;4836690;29;20201;-72
2023/11/16 03:09:05;;;;;;;6.87;2.20;;;8.10;99.90;;;;;;4829260;29;20202;-73
2023/11/16 03:11:33;;;;;;;5.63;1.60;;;8.10;99.90;;;;;;4829272;29;20525;-73
2023/11/16 03:13:59;;;;;;;4.17;2.03;;;8.10;99.90;;;;;;4826460;29;21005;-71
2023/11/16 03:16:25;;;;;;;8.00;2.00;;;8.10;99.90;;;;;;4830279;29;20483;-72
2023/11/16 03:18:52;;;;;;;10.63;2.00;;;8.20;99.90;;;;;;4847339;29;20281;-72
2023/11/16 03:21:18;;;;;;;5.27;2.00;;;8.20;99.90;;;;;;4830983;29;20696;-75
2023/11/16 03:23:44;;;;;;;3.60;1.50;;;8.20;99.90;;;;;;4820266;29;20728;-73
2023/11/16 03:26:10;;;;;;;6.83;2.57;;;8.20;99.90;;;;;;4829005;29;20450;-71
2023/11/16 03:28:36;;;;;;;11.67;2.53;;;8.20;99.90;;;;;;4835862;29;20438;-71
2023/11/16 03:31:05;;;;;;;8.23;1.80;;;8.20;99.90;;;;;;4830229;29;20427;-73
2023/11/16 03:33:31;;;;;;;6.73;2.20;;;8.20;99.90;;;;;;4828138;29;20732;-72
2023/11/16 03:35:58;;;;;;;7.57;2.00;;;8.20;99.90;;;;;;4828956;29;20453;-74
2023/11/16 03:38:24;;;;;;;4.77;2.07;;;8.20;99.90;;;;;;4827354;29;20514;-72
2023/11/16 03:40:50;;;;;;;6.60;1.50;;;8.20;99.90;;;;;;4827558;29;20798;-72
2023/11/16 03:43:16;;;;;;;6.77;1.80;;;8.20;99.90;;;;;;4835164;29;20466;-72
2023/11/16 03:45:42;;;;;;;4.73;1.97;;;8.20;99.90;;;;;;4832568;29;20494;-71
2023/11/16 03:48:08;;;;;;;8.53;2.00;;;8.20;99.90;;;;;;4828350;29;20258;-72
2023/11/16 03:50:35;;;;;;;3.40;1.80;;;8.20;99.90;;;;;;4828782;29;20201;-71
2023/11/16 03:53:00;;;;;;;3.33;2.00;;;8.10;99.90;;;;;;4828324;29;20704;-73
2023/11/16 03:55:26;;;;;;;5.13;1.97;;;8.10;99.90;;;;;;4829239;29;20585;-73
2023/11/16 03:57:52;;;;;;;6.53;2.40;;;8.10;99.90;;;;;;4811798;29;20288;-70
2023/11/16 04:00:21;;;;;;;10.67;2.43;;;8.10;99.90;;;;;;4841663;29;20227;-72
2023/11/16 04:02:48;;;;;;;6.07;2.20;;;8.10;99.90;;;;;;4846818;29;20184;-72
2023/11/16 04:05:16;;;;;;;8.33;2.23;;;8.10;99.90;;;;;;4846902;29;20529;-75
2023/11/16 04:07:42;;;;;;;8.10;1.90;;;8.00;99.90;;;;;;4846213;29;20441;-72
2023/11/16 04:10:09;;;;;;;4.47;1.63;;;7.90;99.90;;;;;;4846534;29;20886;-72
2023/11/16 04:12:39;;;;;;;6.30;1.73;;;7.90;99.90;;;;;;4838830;29;20772;-72
2023/11/16 04:15:05;;;;;;;9.07;2.20;;;7.80;99.90;;;;;;4826880;29;20486;-71
2023/11/16 04:17:32;;;;;;;4.13;2.07;;;7.70;99.90;;;;;;4831700;29;20453;-72
2023/11/16 04:19:57;;;;;;;6.40;2.20;;;7.60;99.90;;;;;;4846037;29;20475;-72
2023/11/16 04:22:23;;;;;;;4.43;1.53;;;7.50;99.90;;;;;;4844809;29;20205;-72
2023/11/16 04:24:52;;;;;;;3.10;1.37;;;7.50;99.90;;;;;;4829173;29;20652;-73
2023/11/16 04:27:18;;;;;;;5.90;1.70;;;7.40;99.90;;;;;;4840191;29;20437;-72
2023/11/16 04:29:45;;;;;;;9.43;2.40;;;7.40;99.90;;;;;;4846791;29;20434;-71
2023/11/16 04:32:11;;;;;;;2.47;1.63;;;7.50;99.90;;;;;;4840625;29;20201;-71
2023/11/16 04:34:37;;;;;;;3.20;1.90;;;7.50;99.90;;;;;;4841538;29;20909;-71
2023/11/16 04:37:07;;;;;;;3.43;1.50;;;7.50;99.90;;;;;;4831431;29;20429;-72
2023/11/16 04:39:32;;;;;;;4.27;1.80;;;7.60;99.90;;;;;;4830610;29;20502;-69
2023/11/16 04:41:58;;;;;;;5.70;2.13;;;7.60;99.90;;;;;;4823949;29;20502;-74
2023/11/16 04:44:25;;;;;;;10.07;2.37;;;7.60;99.90;;;;;;4843986;29;20200;-74
2023/11/16 04:46:51;;;;;;;7.10;2.10;;;7.60;99.90;;;;;;4851885;29;20196;-72
2023/11/16 04:49:18;;;;;;;6.37;1.87;;;7.60;99.90;;;;;;4851992;29;20422;-73
2023/11/16 04:51:44;;;;;;;4.43;1.50;;;7.60;99.90;;;;;;4833136;29;20479;-71
2023/11/16 04:54:10;;;;;;;5.67;2.23;;;7.60;99.90;;;;;;4832731;29;20482;-76
2023/11/16 04:56:39;;;;;;;4.93;1.47;;;7.60;99.90;;;;;;4839723;29;20497;-71
2023/11/16 04:59:07;;;;;;;5.70;2.40;;;7.60;99.90;;;;;;4826805;29;20732;-71
2023/11/16 05:01:32;;;;;;;7.10;2.50;;;7.60;99.90;;;;;;4838685;29;20407;-70
2023/11/16 05:03:58;;;;;;;3.87;2.37;;;7.50;99.90;;;;;;4849546;29;20860;-71
2023/11/16 05:06:23;;;;;;;4.47;2.33;;;7.40;99.90;;;;;;4833051;29;20691;-74
2023/11/16 05:08:49;;;;;;;5.57;2.33;;;7.30;99.90;;;;;;4839395;29;20206;-73
2023/11/16 05:11:24;;;;;;;9.03;3.30;;;7.30;99.90;;;;;;4839809;29;20523;-73
2023/11/16 05:13:50;;;;;;;4.90;2.20;;;7.30;99.90;;;;;;4832451;29;20213;-72
2023/11/16 05:16:16;;;;;;;8.37;3.10;;;7.20;99.90;;;;;;4837814;29;20574;-75
2023/11/16 05:18:43;;;;;;;6.13;2.77;;;7.20;99.90;;;;;;4849977;29;20204;-72
2023/11/16 05:21:09;;;;;;;7.60;4.20;;;7.20;99.90;;;;;;4836812;29;21296;-73
2023/11/16 05:23:37;;;;;;;9.57;3.40;;;7.20;99.90;;;;;;4831714;29;20411;-70
2023/11/16 05:26:03;;;;;;;10.00;4.10;;;7.30;99.90;;;;;;4814248;29;20514;-72
2023/11/16 05:28:29;;;;;;;6.73;3.53;;;7.40;99.90;;;;;;4818571;29;20423;-72
2023/11/16 05:30:54;;;;;;;11.17;3.30;;;7.40;99.90;;;;;;4841836;29;20434;-73
2023/11/16 05:33:22;;;;;;;6.03;3.30;;;7.50;99.90;;;;;;4830175;29;20245;-72
2023/11/16 05:35:48;;;;;;;9.73;2.87;;;7.50;99.90;;;;;;4820112;29;20221;-73
2023/11/16 05:38:15;;;;;;;3.40;2.13;;;7.50;99.90;;;;;;4840525;29;20411;-73
2023/11/16 05:40:42;;;;;;;5.10;2.37;;;7.60;99.90;;;;;;4836363;29;20443;-72
2023/11/16 05:43:08;;;;;;;5.50;2.57;;;7.60;99.90;;;;;;4822438;29;20493;-74
2023/11/16 05:45:34;;;;;;;5.10;2.50;;;7.60;99.90;;;;;;4827909;29;20776;-73
2023/11/16 05:47:59;;;;;;;7.47;3.13;;;7.60;99.90;;;;;;4839781;29;20437;-72
2023/11/16 05:50:25;;;;;;;9.67;2.90;;;7.60;99.90;;;;;;4807001;29;20602;-73
2023/11/16 05:52:52;;;;;;;9.10;3.10;;;7.70;99.90;;;;;;4833114;29;20201;-74
2023/11/16 05:55:20;;;;;;;6.97;2.23;;;7.70;99.90;;;;;;4832146;29;20529;-71
2023/11/16 05:57:47;;;;;;;6.70;2.67;;;7.70;99.90;;;;;;4820064;29;20509;-71
2023/11/16 06:00:14;;;;;;;3.47;2.33;;;7.80;99.90;;;;;;4829745;29;20431;-71
2023/11/16 06:02:39;;;;;;;3.00;1.97;;;7.80;99.90;;;;;;4823467;29;20469;-72
2023/11/16 06:05:06;;;;;;;9.80;2.73;;;7.80;99.90;;;;;;4848840;29;20454;-73
2023/11/16 06:07:31;;;;;;;4.67;2.20;;;7.80;99.90;;;;;;4839036;29;20285;-75
2023/11/16 06:09:57;;;;;;;6.40;3.30;;;7.80;99.90;;;;;;4832745;29;20423;-73
2023/11/16 06:12:23;;;;;;;5.97;2.27;;;7.80;99.90;;;;;;4840443;29;20498;-74
2023/11/16 06:14:55;;;;;;;3.83;2.37;;;7.80;99.90;;;;;;4832064;29;20493;-72
2023/11/16 06:17:21;;;;;;;7.23;2.80;;;7.80;99.90;;;;;;4839138;29;20189;-76
2023/11/16 06:19:47;;;;;;;4.50;2.00;;;7.80;99.90;;;;;;4829983;29;20411;-73
2023/11/16 06:22:12;;;;;;;4.40;2.00;;;7.80;99.90;;;;;;4841464;29;20434;-73
2023/11/16 06:24:38;;;;;;;4.33;2.00;;;7.80;99.90;;;;;;4823814;29;20228;-76
2023/11/16 06:27:04;;;;;;;5.70;2.43;;;7.80;99.90;;;;;;4822193;29;20198;-73
2023/11/16 06:29:30;;;;;;;5.10;1.67;;;7.80;99.90;;;;;;4824434;29;20532;-72
2023/11/16 06:31:56;;;;;;;7.60;2.00;;;7.90;99.90;;;;;;4817321;29;20525;-74
2023/11/16 06:34:22;;;;;;;5.60;2.20;;;7.90;99.90;;;;;;4826352;29;20497;-73
2023/11/16 06:36:49;;;;;;;5.73;2.60;;;7.90;99.90;;;;;;4836804;29;20519;-73
2023/11/16 06:39:14;;;;;;;6.67;2.67;;;7.90;99.90;;;;;;4847939;29;20442;-76
2023/11/16 06:41:43;;;;;;;5.20;2.00;;;7.90;99.90;;;;;;4854099;29;20418;-78
2023/11/16 06:44:09;;;;;;;7.50;2.50;;;7.90;99.90;;;;;;4819494;29;20202;-75
2023/11/16 06:46:34;;;;;;;5.33;2.50;;;7.90;99.90;;;;;;4824823;29;20740;-74
2023/11/16 06:49:02;;;;;;;3.50;2.17;;;8.00;99.90;;;;;;4829499;29;20257;-74
2023/11/16 06:51:28;;;;;;;3.43;2.10;;;7.90;99.90;;;;;;4839357;29;20230;-73
2023/11/16 06:53:54;;;;;;;3.40;1.60;;;8.00;99.90;;;;;;4841144;29;20590;-73
2023/11/16 06:56:20;;;;;;;2.83;1.60;;;7.90;99.90;;;;;;4824430;29;20478;-75
2023/11/16 06:58:47;;;;;;;3.03;1.90;;;8.00;99.90;;;;;;4841400;29;20198;-77
2023/11/16 07:01:12;;;;;;;4.43;2.20;;;8.00;99.90;;;;;;4831664;29;20425;-76
2023/11/16 07:03:39;;;;;;;2.93;1.47;;;8.00;99.90;;;;;;4834264;29;20433;-76
2023/11/16 07:06:06;;;;;;;3.63;1.50;;;7.90;99.90;;;;;;4848028;29;20224;-74
2023/11/16 07:08:31;;;;;;;6.40;2.30;;;8.00;99.90;;;;;;4844822;29;20454;-74
2023/11/16 07:10:57;;;;;;;4.30;2.20;;;7.90;99.90;;;;;;4827668;29;20434;-75
2023/11/16 07:13:23;;;;;;;4.20;2.53;;;8.00;99.90;;;;;;4831800;29;20209;-74
2023/11/16 07:15:49;;;;;;;8.13;2.77;;;8.00;99.90;;;;;;4846216;29;20674;-74
2023/11/16 07:18:19;;;;;;;4.50;2.70;;;8.00;99.90;;;;;;4827362;29;20201;-76
2023/11/16 07:20:45;;;;;;;2.87;1.73;;;8.00;99.90;;;;;;4818801;29;20591;-75
2023/11/16 07:23:11;;;;;;;2.90;1.50;;;8.00;99.90;;;;;;4818106;29;20899;-74
2023/11/16 07:25:37;;;;;;;3.33;1.97;;;8.00;99.90;;;;;;4843890;29;20612;-76
2023/11/16 07:28:04;;;;;;;3.43;2.17;;;8.00;99.90;;;;;;4826371;29;20883;-75
2023/11/16 07:30:32;;;;;;;5.40;2.60;;;7.90;99.90;;;;;;4825973;29;20689;-78
2023/11/16 07:32:58;;;;;;;5.10;2.10;;;7.90;99.90;;;;;;4842336;29;20414;-74
2023/11/16 07:35:25;;;;;;;8.30;2.60;;;7.80;99.90;;;;;;4833493;29;20500;-75
2023/11/16 07:37:51;;;;;;;11.00;3.50;;;7.80;99.90;;;;;;4842500;29;20426;-74
2023/11/16 07:40:20;;;;;;;13.00;3.30;;;7.80;99.90;;;;;;4853815;29;20442;-73
2023/11/16 07:42:47;;;;;;;5.50;2.90;;;7.70;99.90;;;;;;4836932;29;20599;-76
2023/11/16 07:45:13;;;;;;;8.97;2.90;;;7.60;99.90;;;;;;4820079;29;20591;-76
2023/11/16 07:47:41;;;;;;;6.40;3.00;;;7.60;99.90;;;;;;4812151;29;20453;-76
2023/11/16 07:50:10;;;;;;;7.87;2.90;;;7.60;99.90;;;;;;4839923;29;20430;-78
2023/11/16 07:52:44;;;;;;;5.73;2.70;;;7.60;99.90;;;;;;4830895;29;20709;-76
2023/11/16 07:55:21;;;;;;;12.70;3.60;;;7.50;99.90;;;;;;4818407;29;20521;-75
2023/11/16 07:57:48;;;;;;;3.30;2.37;;;7.50;99.90;;;;;;4821573;29;20438;-78
2023/11/16 08:00:22;;;;;;;4.30;2.50;;;7.50;99.90;;;;;;4836882;29;20423;-75
2023/11/16 08:05:34;;;;;;;4.57;2.63;;;7.50;99.90;;;;;;4837040;29;20474;-77
2023/11/16 08:08:03;;;;;;;4.10;2.27;;;7.40;99.90;;;;;;4817030;29;20642;-73
2023/11/16 08:10:28;;;;;;;7.00;2.97;;;7.40;99.90;;;;;;4835025;29;20494;-72
2023/11/16 08:12:54;;;;;;;7.40;3.07;;;7.40;99.90;;;;;;4833178;29;20465;-74
2023/11/16 08:15:25;;;;;;;8.27;2.27;;;7.40;99.90;;;;;;4821784;29;20234;-74
2023/11/16 08:17:54;;;;;;;5.63;2.57;;;7.40;99.90;;;;;;4799084;29;20194;-76
2023/11/16 08:20:23;;;;;;;5.83;2.67;;;7.50;99.90;;;;;;4818379;29;20879;-73
2023/11/16 08:22:53;;;;;;;4.87;2.83;;;7.50;99.90;;;;;;4838398;29;20431;-74
2023/11/16 08:25:23;;;;;;;4.83;2.87;;;7.60;99.90;;;;;;4843477;29;20793;-75
2023/11/16 08:27:50;;;;;;;4.37;2.30;;;7.70;99.90;;;;;;4814334;29;20474;-73
2023/11/16 08:30:17;;;;;;;2.63;1.93;;;7.70;99.90;;;;;;4833132;29;20501;-73
2023/11/16 08:32:43;;;;;;;4.30;1.90;;;7.80;99.90;;;;;;4834760;29;20427;-72
2023/11/16 08:35:10;;;;;;;3.33;1.57;;;7.90;99.90;;;;;;4830740;29;20791;-70
2023/11/16 08:37:41;;;;;;;5.97;2.07;;;7.90;99.90;;;;;;4817180;29;20427;-72
2023/11/16 08:40:08;;;;;;;3.80;2.50;;;8.00;99.90;;;;;;4826316;29;20529;-70
2023/11/16 08:42:41;;;;;;;6.40;2.50;;;8.00;99.90;;;;;;4824904;29;20439;-70
2023/11/16 08:45:17;;;;;;;4.43;2.10;;;8.10;99.90;;;;;;4839863;29;20447;-71
2023/11/16 08:47:56;;;;;;;3.80;1.73;;;8.10;99.90;;;;;;4822081;29;20453;-76
2023/11/16 08:50:22;;;;;;;3.97;1.80;;;8.10;99.90;;;;;;4838165;29;20438;-74
2023/11/16 08:52:49;;;;;;;2.73;1.70;;;8.20;99.90;;;;;;4826525;29;20456;-74
2023/11/16 08:55:21;;;;;;;2.53;1.27;;;8.30;99.90;;;;;;4827850;29;20487;-77
2023/11/16 08:57:47;;;;;;;10.23;2.70;;;8.40;99.90;;;;;;4835300;29;20443;-75
2023/11/16 09:03:03;;;;;;;5.13;2.60;;;8.60;99.90;;;;;;4833045;29;20851;-77
2023/11/16 09:05:29;;;;;;;4.73;3.10;;;8.80;99.90;;;;;;4849320;29;20489;-75
2023/11/16 09:07:55;;;;;;;7.53;3.00;;;8.90;99.90;;;;;;4829717;29;20877;-73
2023/11/16 09:10:24;;;;;;;7.57;2.90;;;9.00;99.90;;;;;;4838315;29;20423;-75
2023/11/16 09:12:53;;;;;;;6.37;2.87;;;9.10;99.90;;;;;;4815233;29;20438;-73
2023/11/16 09:15:20;;;;;;;4.63;2.77;;;9.20;99.90;;;;;;4825085;29;20538;-74
2023/11/16 09:17:46;;;;;;;6.50;3.30;;;9.20;99.90;;;;;;4817229;29;20703;-76
2023/11/16 09:20:13;;;;;;;7.37;3.60;;;9.20;99.90;;;;;;4829824;29;20857;-77
2023/11/16 09:22:42;;;;;;;9.53;3.70;;;9.20;99.90;;;;;;4837103;29;20433;-77
2023/11/16 09:25:15;;;;;;;10.93;4.00;;;9.30;99.90;;;;;;4823275;29;20475;-78
2023/11/16 09:27:42;;;;;;;10.13;3.20;;;9.30;99.90;;;;;;4833102;29;20443;-76
2023/11/16 09:30:14;;;;;;;5.90;3.60;;;9.30;99.90;;;;;;4845962;29;20793;-77
2023/11/16 09:32:43;;;;;;;9.50;2.63;;;9.40;99.90;;;;;;4838271;29;20479;-75
2023/11/16 09:35:09;;;;;;;4.90;2.73;;;9.50;99.90;;;;;;4833714;29;20462;-76
2023/11/16 09:37:35;;;;;;;6.10;2.63;;;9.60;99.90;;;;;;4832237;29;20431;-76
2023/11/16 09:40:04;;;;;;;3.67;2.30;;;9.70;99.90;;;;;;4825865;29;20434;-78
2023/11/16 09:42:33;;;;;;;8.93;2.60;;;9.70;99.90;;;;;;4831113;29;20434;-75
2023/11/16 09:45:02;;;;;;;4.00;2.10;;;9.80;99.90;;;;;;4823342;29;20443;-76
2023/11/16 09:47:31;;;;;;;3.60;1.90;;;9.80;99.90;;;;;;4811543;29;20451;-75
2023/11/16 09:49:57;;;;;;;4.00;2.57;;;9.80;99.90;;;;;;4823902;29;20454;-74
2023/11/16 09:52:25;;;;;;;3.90;2.20;;;9.80;99.90;;;;;;4817475;29;20892;-80
2023/11/16 09:54:56;;;;;;;9.40;3.93;;;9.80;99.90;;;;;;4812457;29;20502;-78
2023/11/16 09:57:22;;;;;;;6.00;3.50;;;9.80;99.90;;;;;;4807451;29;20435;-75
2023/11/16 09:59:52;;;;;;;6.27;3.20;;;9.80;99.90;;;;;;4833397;29;20425;-75
2023/11/16 10:02:23;;;;;;;6.77;3.23;;;9.70;99.90;;;;;;4849012;29;20202;-75
2023/11/16 10:04:50;;;;;;;10.77;5.40;;;9.70;99.90;;;;;;4823741;29;20498;-79
2023/11/16 10:07:20;;;;;;;7.83;4.17;;;9.60;99.90;;;;;;4827548;29;20434;-76
2023/11/16 10:09:46;;;;;;;7.10;3.63;;;9.60;99.90;;;;;;4827967;29;20720;-75
2023/11/16 10:12:13;;;;;;;6.60;3.23;;;9.70;99.90;;;;;;4826292;29;20446;-76
2023/11/16 10:14:51;;;;;;;5.60;2.83;;;9.60;99.90;;;;;;4828493;29;20478;-75
2023/11/16 10:17:21;;;;;;;5.00;2.60;;;9.60;99.90;;;;;;4829594;29;20433;-76
2023/11/16 10:19:53;;;;;;;6.50;3.50;;;9.60;99.90;;;;;;4825882;29;20447;-76
2023/11/16 10:22:19;;;;;;;6.50;3.20;;;9.60;99.90;;;;;;4823480;29;20429;-78
2023/11/16 10:24:44;;;;;;;8.20;2.77;;;9.50;99.90;;;;;;4826694;29;20919;-76
2023/11/16 10:27:11;;;;;;;14.73;5.40;;;9.60;99.90;;;;;;4823945;29;20203;-77
2023/11/16 10:29:39;;;;;;;7.87;3.20;;;9.50;99.90;;;;;;4839848;29;20314;-74
2023/11/16 10:32:06;;;;;;;7.97;3.60;;;9.50;99.90;;;;;;4820399;29;20435;-76
2023/11/16 10:34:32;;;;;;;5.87;2.70;;;9.40;99.90;;;;;;4826846;29;20652;-77
2023/11/16 10:37:00;;;;;;;9.50;2.63;;;9.40;99.90;;;;;;4824416;29;20439;-74
2023/11/16 10:39:27;;;;;;;5.13;3.10;;;9.40;99.90;;;;;;4817234;29;20443;-77
2023/11/16 10:41:54;;;;;;;6.43;3.07;;;9.30;99.90;;;;;;4831375;29;20431;-75
2023/11/16 10:44:24;;;;;;;5.77;3.03;;;9.30;99.90;;;;;;4820769;29;20539;-77
2023/11/16 10:46:51;;;;;;;9.90;3.30;;;9.40;99.90;;;;;;4841031;29;20506;-76
2023/11/16 10:49:17;;;;;;;10.20;2.80;;;9.40;99.90;;;;;;4824227;29;20509;-78
2023/11/16 10:51:46;;;;;;;6.60;3.20;;;9.30;99.90;;;;;;4852657;29;20437;-78
2023/11/16 10:54:18;;;;;;;7.57;3.17;;;9.40;99.90;;;;;;4834039;29;20244;-79
2023/11/16 10:56:47;;;;;;;7.87;2.83;;;9.40;99.90;;;;;;4834108;29;20473;-77
2023/11/16 10:59:18;;;;;;;6.13;2.03;;;9.40;99.90;;;;;;4819761;29;20415;-79
2023/11/16 11:01:44;;;;;;;5.10;2.90;;;9.40;99.90;;;;;;4840403;29;20435;-78
2023/11/16 11:04:10;;;;;;;9.10;2.67;;;9.50;99.90;;;;;;4833084;29;20442;-77
2023/11/16 11:06:43;;;;;;;5.57;2.50;;;9.50;99.90;;;;;;4851313;29;20438;-77
2023/11/16 11:09:09;;;;;;;3.53;2.57;;;9.60;99.90;;;;;;4818931;29;20197;-70
2023/11/16 11:11:38;;;;;;;5.83;2.60;;;9.60;99.90;;;;;;4832204;29;20429;-73
2023/11/16 11:14:06;;;;;;;8.13;3.43;;;9.60;99.90;;;;;;4840019;29;20216;-73
2023/11/16 11:16:32;;;;;;;4.73;2.30;;;9.60;99.90;;;;;;4833276;29;20443;-70
2023/11/16 11:18:58;;;;;;;6.73;2.83;;;9.60;99.90;;;;;;4833676;29;20660;-72
2023/11/16 11:21:26;;;;;;;5.17;2.80;;;9.60;99.90;;;;;;4841361;29;20182;-73
2023/11/16 11:24:00;;;;;;;4.97;2.83;;;9.60;99.90;;;;;;4827319;29;20629;-73
2023/11/16 11:26:48;;;;;;;7.47;3.00;;;9.50;99.90;;;;;;4844476;29;20450;-73
2023/11/16 11:29:15;;;;;;;7.57;3.20;;;9.50;99.90;;;;;;4837834;29;20438;-71
2023/11/16 11:31:59;;;;;;;6.83;2.50;;;9.50;99.90;;;;;;4836818;29;20427;-72
2023/11/16 11:34:30;;;;;;;10.53;5.33;;;9.50;99.90;;;;;;4838952;29;20533;-72
2023/11/16 11:36:56;;;;;;;8.30;2.60;;;9.50;99.90;;;;;;4844658;29;20432;-70
2023/11/16 11:39:26;;;;;;;5.33;2.70;;;9.50;99.90;;;;;;4821908;29;20451;-69
2023/11/16 11:42:01;;;;;;;4.37;2.30;;;9.50;99.90;;;;;;4850620;29;20446;-72
2023/11/16 11:44:27;;;;;;;4.60;2.60;;;9.50;99.90;;;;;;4833020;29;20442;-72
2023/11/16 11:46:56;;;;;;;7.90;2.87;;;9.50;99.90;;;;;;4834003;29;20450;-70
2023/11/16 11:49:24;;;;;;;6.53;2.57;;;9.50;99.90;;;;;;4840442;29;20262;-69
2023/11/16 11:52:07;;;;;;;3.80;2.20;;;9.50;99.90;;;;;;4994542;27;20915;-70
2023/11/16 11:54:36;;;;;;;8.07;3.10;;;9.50;99.90;;;;;;4992112;28;20454;-70
2023/11/16 11:57:04;;;;;;;5.70;3.10;;;9.40;99.90;;;;;;5004530;28;20555;-69
2023/11/16 11:59:30;;;;;;;6.70;2.80;;;9.40;99.90;;;;;;4994904;28;20789;-70
2023/11/16 12:01:56;;;;;;;6.13;2.60;;;9.40;99.90;;;;;;4992204;28;20427;-72
2023/11/16 12:04:21;;;;;;;9.20;2.93;;;9.40;99.90;;;;;;4996485;28;20213;-72
2023/11/16 12:06:47;;;;;;;6.67;3.07;;;9.30;99.90;;;;;;4994418;28;20215;-73
2023/11/16 12:09:13;;;;;;;8.63;3.23;;;9.30;99.90;;;;;;4993490;28;20188;-70
2023/11/16 12:11:39;;;;;;;8.43;3.47;;;9.30;99.90;;;;;;4984436;28;20295;-71
2023/11/16 12:14:09;;;;;;;7.93;3.20;;;9.20;99.90;;;;;;4993754;28;20192;-70
2023/11/16 12:16:35;;;;;;;7.13;3.40;;;9.20;99.90;;;;;;4994914;28;20475;-74
2023/11/16 12:19:01;;;;;;;7.57;3.53;;;9.20;99.90;;;;;;4995585;28;20435;-72
2023/11/16 12:21:27;;;;;;;7.93;3.70;;;9.20;99.90;;;;;;4995188;28;20438;-71
2023/11/16 12:23:54;;;;;;;6.10;2.53;;;9.20;99.90;;;;;;4989378;28;20411;-80
2023/11/16 12:26:26;;;;;;;10.87;3.40;;;9.20;99.90;;;;;;5003781;28;20281;-80
2023/11/16 12:28:57;;;;;;;8.53;3.40;;;9.10;99.90;;;;;;4989433;28;20454;-80
2023/11/16 12:31:31;;;;;;;8.30;3.20;;;9.10;99.90;;;;;;4993269;28;20451;-80
2023/11/16 12:33:58;;;;;;;6.77;3.00;;;9.10;99.90;;;;;;4978029;28;20519;-80
2023/11/16 12:36:26;;;;;;;11.13;3.33;;;9.10;99.90;;;;;;5007769;28;20439;-80
2023/11/16 12:38:53;;;;;;;6.30;2.87;;;9.20;99.90;;;;;;5007227;28;20438;-75
2023/11/16 12:41:22;;;;;;;7.00;2.90;;;9.10;99.90;;;;;;5003958;28;20406;-76
2023/11/16 12:43:49;;;;;;;15.30;4.40;;;9.20;99.90;;;;;;4996962;28;20406;-77
2023/11/16 12:46:14;;;;;;;10.03;2.90;;;9.20;99.90;;;;;;5002734;28;20443;-78
2023/11/16 12:48:41;;;;;;;8.63;4.50;;;9.20;99.90;;;;;;5001135;28;20259;-77
2023/11/16 12:51:07;;;;;;;11.53;3.00;;;9.30;99.90;;;;;;4997947;28;20235;-77
2023/11/16 12:53:35;;;;;;;8.00;2.77;;;9.30;99.90;;;;;;5001748;28;20743;-75
2023/11/16 12:56:01;;;;;;;7.03;2.80;;;9.30;99.90;;;;;;4981644;28;20443;-75
2023/11/16 12:58:28;;;;;;;9.20;2.77;;;9.30;99.90;;;;;;5005691;28;20439;-75
2023/11/16 13:00:56;;;;;;;4.40;2.60;;;9.30;99.90;;;;;;4999233;28;20487;-75
2023/11/16 13:03:22;;;;;;;7.67;2.60;;;9.30;99.90;;;;;;5011713;28;20455;-75